Un Pendik — TCOD2 — position and weather

sailwx.info

Track history (hours):
 
Tides and Currents Weather Stations Pressure Air Temp Water Temp Dewpoint Dewpoint Depression Visibility Wind Speed Wind Dir Waves Ship Positions

Un Pendik

Last reported at 2016-Jul-02 08:33 UTC. Time now 2016-Jul-02 09:34 UTC.
Position N 43°10' E 015°06'.

Length 193 m; draft 6.7 m.

Type: Ship (hazmat cat A). MMSI: 271000792.

Date/timePositionNaut miles runAvg speedWind from/ knotsBaromVisibWave heightAir tempDewpointWater temp
2016-Jul-02 08:33N 43°10' E 015°06'8019.9
2016-Jul-02 04:33N 44°13' E 013°58'2019.7
2016-Jul-02 03:33N 44°29' E 013°43'1919.4
2016-Jul-02 02:33N 44°45' E 013°28'2019.6
2016-Jul-02 01:33N 45°02' E 013°13'1818.3
2016-Jul-02 00:33N 45°20' E 013°07'1818.4
2016-Jul-01 23:33N 45°34' E 013°23'1612.3
2016-Jul-01 22:16N 45°39' E 013°45'0 0.0
2016-Jul-01 14:33N 45°39' E 013°45'0 0.0
2016-Jul-01 13:33N 45°39' E 013°45'6 6.0
2016-Jul-01 12:33N 45°37' E 013°37'1918.9
2016-Jul-01 11:33N 45°24' E 013°18'1818.4
2016-Jul-01 10:33N 45°05' E 013°20'2019.8
2016-Jul-01 09:33N 44°48' E 013°33'2019.8
2016-Jul-01 08:34N 44°31' E 013°48'2220.0
2016-Jul-01 07:29N 44°13' E 014°04'20220.0
2016-Jun-30 21:23N 41°49' E 017°17'2019.7
2016-Jun-30 20:22N 41°35' E 017°36'6420.1
2016-Jun-30 17:11N 40°47' E 018°32'3320.3
2016-Jun-30 15:33N 40°18' E 018°52'4320.3
2016-Jun-30 13:27N 39°39' E 019°17'1819.9
2016-Jun-30 12:33N 39°23' E 019°28'2519.8
2016-Jun-30 11:17N 39°01' E 019°43'7419.6
2016-Jun-30 07:30N 37°56' E 020°28'16016.1
2016-Jun-29 21:33N 36°46' E 023°29'2020.3
2016-Jun-29 20:34N 37°03' E 023°44'2720.1
2016-Jun-29 19:14N 37°26' E 024°01'1319.9
2016-Jun-29 18:34N 37°37' E 024°11'2020.3
2016-Jun-29 17:34N 37°52' E 024°28'  
2016-Jun-26 19:21N 37°47' E 024°35'2418.7
2016-Jun-26 18:05N 37°27' E 024°19'1019.8
2016-Jun-26 17:33N 37°19' E 024°11'63717.2
2016-Jun-25 04:25N 44°26' E 013°45'1719.7
2016-Jun-25 03:33N 44°40' E 013°32'2019.9
2016-Jun-25 02:33N 44°57' E 013°17'1919.1
2016-Jun-25 01:34N 45°14' E 013°04'1716.9
2016-Jun-25 00:33N 45°29' E 013°14'1918.8
2016-Jun-24 23:33N 45°39' E 013°37'5 2.4
2016-Jun-24 21:17N 45°39' E 013°45'0 0.0
2016-Jun-24 20:31N 45°39' E 013°45'24 2.4
2016-Jun-24 10:33N 45°23' E 013°19'1919.1
2016-Jun-24 09:34N 45°04' E 013°21'2019.9
2016-Jun-24 08:33N 44°46' E 013°34'2120.1
2016-Jun-24 07:30N 44°28' E 013°50'62616.8
2016-Jun-22 18:19N 37°26' E 024°01'1820.9
2016-Jun-22 17:27N 37°41' E 024°14'  
Track history (hours):
 
Tides and Currents Weather Stations Pressure Air Temp Water Temp Dewpoint Dewpoint Depression Visibility Wind Speed Wind Dir Waves Ship Positions

Un Pendik

Last reported at 2016-Jul-02 08:33 UTC. Time now 2016-Jul-02 09:34 UTC.
Position N 43°10' E 015°06'.

Length 193 m; draft 6.7 m.

Type: Ship (hazmat cat A). MMSI: 271000792.

Date/timePositionNaut miles runAvg speedWind from/ knotsBaromVisibWave heightAir tempDewpointWater temp
2016-Jul-02 08:33N 43°10' E 015°06'8019.9
2016-Jul-02 04:33N 44°13' E 013°58'2019.7
2016-Jul-02 03:33N 44°29' E 013°43'1919.4
2016-Jul-02 02:33N 44°45' E 013°28'2019.6
2016-Jul-02 01:33N 45°02' E 013°13'1818.3
2016-Jul-02 00:33N 45°20' E 013°07'1818.4
2016-Jul-01 23:33N 45°34' E 013°23'1612.3
2016-Jul-01 22:16N 45°39' E 013°45'0 0.0
2016-Jul-01 14:33N 45°39' E 013°45'0 0.0
2016-Jul-01 13:33N 45°39' E 013°45'6 6.0
2016-Jul-01 12:33N 45°37' E 013°37'1918.9
2016-Jul-01 11:33N 45°24' E 013°18'1818.4
2016-Jul-01 10:33N 45°05' E 013°20'2019.8
2016-Jul-01 09:33N 44°48' E 013°33'2019.8
2016-Jul-01 08:34N 44°31' E 013°48'2220.0
2016-Jul-01 07:29N 44°13' E 014°04'20220.0
2016-Jun-30 21:23N 41°49' E 017°17'2019.7
2016-Jun-30 20:22N 41°35' E 017°36'6420.1
2016-Jun-30 17:11N 40°47' E 018°32'3320.3
2016-Jun-30 15:33N 40°18' E 018°52'4320.3
2016-Jun-30 13:27N 39°39' E 019°17'1819.9
2016-Jun-30 12:33N 39°23' E 019°28'2519.8
2016-Jun-30 11:17N 39°01' E 019°43'7419.6
2016-Jun-30 07:30N 37°56' E 020°28'16016.1
2016-Jun-29 21:33N 36°46' E 023°29'2020.3
2016-Jun-29 20:34N 37°03' E 023°44'2720.1
2016-Jun-29 19:14N 37°26' E 024°01'1319.9
2016-Jun-29 18:34N 37°37' E 024°11'2020.3
2016-Jun-29 17:34N 37°52' E 024°28'  
2016-Jun-26 19:21N 37°47' E 024°35'2418.7
2016-Jun-26 18:05N 37°27' E 024°19'1019.8
2016-Jun-26 17:33N 37°19' E 024°11'63717.2
2016-Jun-25 04:25N 44°26' E 013°45'1719.7
2016-Jun-25 03:33N 44°40' E 013°32'2019.9
2016-Jun-25 02:33N 44°57' E 013°17'1919.1
2016-Jun-25 01:34N 45°14' E 013°04'1716.9
2016-Jun-25 00:33N 45°29' E 013°14'1918.8
2016-Jun-24 23:33N 45°39' E 013°37'5 2.4
2016-Jun-24 21:17N 45°39' E 013°45'0 0.0
2016-Jun-24 20:31N 45°39' E 013°45'24 2.4
2016-Jun-24 10:33N 45°23' E 013°19'1919.1
2016-Jun-24 09:34N 45°04' E 013°21'2019.9
2016-Jun-24 08:33N 44°46' E 013°34'2120.1
2016-Jun-24 07:30N 44°28' E 013°50'62616.8
2016-Jun-22 18:19N 37°26' E 024°01'1820.9
2016-Jun-22 17:27N 37°41' E 024°14'  

Dump ship's entire track history